East Middlebury, Vermont
Current Conditions -  °F | °C
As of 11:35 PM on Friday 24 Oct 2014 (Local Time) from K6B0 Reporting Station
Clear Clear  
Wind Chill: 42°   Ceiling: Unl
Heat Index: 42°   Visibility: 10mi
Dew Point: 42°   Wind: 0mph
Humidity: 100%   Direction: NA
Pressure: 29.82"   Gusts: NA
Location:  43.97°N, 73.11°W
Report Text: K6B0 250335Z AUTO 00000KT 10SM CLR 05/05 A2982 RMK AO2 T00540054
Loading
Personal Weather Stations






























Interactive Weather Map New forecast layout! Learn more

10-Day Weather Forecast

Advertisements
Track Severe Weather on mobile